createdAt,value
2022-12-28T00:26:26.096Z,95.72
2022-12-28T00:29:38.317Z,95.76
2022-12-28T06:02:58.801Z,89.79
2022-12-28T06:06:18.228Z,90.24
2022-12-28T06:53:20.926Z,93.13
2022-12-28T06:56:35.103Z,92.98
2022-12-28T06:59:47.053Z,92.88
2022-12-28T07:03:04.648Z,93.22
2022-12-28T07:06:18.295Z,92.36
2022-12-28T07:09:30.278Z,92.55
2022-12-28T07:12:42.191Z,92.68
2022-12-28T07:15:54.036Z,92.51
2022-12-28T07:19:07.590Z,92.47
2022-12-28T07:22:19.642Z,91.80
2022-12-28T07:25:31.848Z,91.97
2022-12-28T07:28:46.874Z,91.79
2022-12-28T07:32:02.084Z,91.82
2022-12-28T07:35:15.593Z,91.00
2022-12-28T07:38:27.615Z,91.14
2022-12-28T07:41:41.061Z,90.45
2022-12-28T07:44:54.644Z,90.15
2022-12-28T07:48:06.800Z,89.55
2022-12-28T07:51:22.347Z,89.66
2022-12-28T07:54:34.236Z,89.00
2022-12-28T07:57:46.181Z,88.44
2022-12-28T08:00:58.198Z,87.71
2022-12-28T08:04:13.289Z,87.58
2022-12-28T08:07:25.461Z,87.45
2022-12-28T08:10:37.426Z,86.93
2022-12-28T08:13:51.794Z,86.59
2022-12-28T08:17:03.737Z,86.01
2022-12-28T08:20:17.335Z,85.45
2022-12-28T08:23:29.580Z,85.16
2022-12-28T08:26:44.233Z,85.28
2022-12-28T08:29:56.221Z,84.99
2022-12-28T08:33:08.469Z,84.75
2022-12-28T08:36:20.909Z,84.67
2022-12-28T08:39:32.899Z,84.63
2022-12-28T08:42:44.824Z,84.87
2022-12-28T08:46:06.446Z,84.38
2022-12-28T08:49:18.927Z,83.87
2022-12-28T08:52:30.927Z,83.69
2022-12-28T08:55:43.837Z,83.63
2022-12-28T08:58:57.020Z,83.50
2022-12-28T09:02:09.102Z,82.80
2022-12-28T09:05:21.559Z,82.68
2022-12-28T09:08:33.567Z,82.06
2022-12-28T09:11:47.219Z,81.27
2022-12-28T09:14:59.126Z,81.45
2022-12-28T09:18:11.518Z,81.62
2022-12-28T09:21:26.150Z,81.23
2022-12-28T09:24:38.129Z,80.31
2022-12-28T09:27:59.083Z,80.56
2022-12-28T09:31:10.741Z,79.51
2022-12-28T09:34:38.621Z,79.00
2022-12-28T09:37:37.316Z,78.99
2022-12-28T09:40:49.745Z,78.30
2022-12-28T09:44:22.784Z,77.09
2022-12-28T09:47:41.546Z,76.46
2022-12-28T09:50:55.902Z,75.65
2022-12-28T09:54:09.226Z,75.72
2022-12-28T09:57:23.173Z,75.92
2022-12-28T10:00:42.747Z,75.27
2022-12-28T10:03:54.967Z,74.52
2022-12-28T10:07:07.847Z,74.97
2022-12-28T10:10:23.721Z,74.61
2022-12-28T10:13:56.774Z,74.66
2022-12-28T10:16:57.824Z,74.69
2022-12-28T10:20:14.924Z,74.53
2022-12-28T10:23:30.821Z,74.35
2022-12-28T10:26:43.519Z,73.65
2022-12-28T10:29:58.489Z,74.20
2022-12-28T10:33:13.785Z,74.20
2022-12-28T10:36:31.464Z,74.98
2022-12-28T10:39:40.743Z,74.30
2022-12-28T10:42:57.830Z,74.39
2022-12-28T10:46:10.544Z,74.54
2022-12-28T10:49:23.033Z,74.66
2022-12-28T10:52:35.721Z,75.69
2022-12-28T10:55:48.428Z,74.53
2022-12-28T10:59:05.304Z,75.50
2022-12-28T11:02:36.792Z,75.87
2022-12-28T11:05:57.178Z,76.01
2022-12-28T11:09:24.248Z,75.63
2022-12-28T11:12:38.303Z,75.18
2022-12-28T11:15:50.510Z,75.60
2022-12-28T11:19:03.192Z,75.18
2022-12-28T11:22:17.761Z,74.98
2022-12-28T11:25:36.745Z,77.44
2022-12-28T11:28:53.159Z,75.58
2022-12-28T11:32:09.808Z,75.21
2022-12-28T11:35:27.005Z,75.23
2022-12-28T11:38:48.838Z,75.22
2022-12-28T11:42:37.389Z,75.28
2022-12-28T11:45:22.147Z,75.57
2022-12-28T11:49:02.291Z,76.03
2022-12-28T11:53:00.267Z,75.39
2022-12-28T11:56:15.124Z,76.40
2022-12-28T11:59:32.635Z,76.16
2022-12-28T12:02:53.243Z,75.56
2022-12-28T12:06:05.854Z,74.66
2022-12-28T12:09:39.312Z,73.81
2022-12-28T12:13:01.487Z,73.81
2022-12-28T12:16:26.055Z,73.95
2022-12-28T12:19:44.434Z,73.59
2022-12-28T12:23:03.695Z,74.06
2022-12-28T12:26:35.857Z,73.44
2022-12-28T12:29:51.482Z,73.97
2022-12-28T12:33:07.987Z,72.94
2022-12-28T12:36:53.246Z,72.83
2022-12-28T12:40:49.626Z,71.50
2022-12-28T12:44:22.110Z,71.50
2022-12-28T12:48:15.170Z,71.67
2022-12-28T12:51:35.844Z,70.66
2022-12-28T12:54:57.880Z,70.44
2022-12-28T12:58:18.456Z,70.21
2022-12-28T13:01:40.385Z,70.16
2022-12-28T13:04:52.908Z,70.22
2022-12-28T13:08:07.209Z,69.98
2022-12-28T13:11:21.204Z,69.65
2022-12-28T13:14:34.258Z,70.19
2022-12-28T13:18:17.984Z,70.14
2022-12-28T13:21:24.623Z,70.41
2022-12-28T13:24:41.555Z,70.86
2022-12-28T13:27:53.738Z,71.33
2022-12-28T13:31:15.247Z,71.83
2022-12-28T13:34:31.019Z,71.68
2022-12-28T13:37:43.035Z,72.44
2022-12-28T13:40:59.472Z,72.70
2022-12-28T13:44:38.636Z,72.86
2022-12-28T13:47:54.641Z,73.36
2022-12-28T13:51:06.967Z,73.29
2022-12-28T13:54:20.231Z,72.34
2022-12-28T13:57:57.396Z,71.81
2022-12-28T14:00:54.229Z,71.15
2022-12-28T14:04:42.333Z,70.85
2022-12-28T14:07:24.526Z,70.76
2022-12-28T14:10:37.098Z,70.42
2022-12-28T14:13:49.271Z,70.64
2022-12-28T14:17:01.643Z,71.35
2022-12-28T14:20:16.803Z,71.79
2022-12-28T14:23:31.672Z,72.01
2022-12-28T14:26:48.366Z,72.49
2022-12-28T14:30:02.488Z,72.15
2022-12-28T14:33:24.974Z,72.93
2022-12-28T14:36:41.474Z,72.91
2022-12-28T14:39:54.734Z,73.65
2022-12-28T14:43:11.554Z,74.26
2022-12-28T14:46:35.255Z,75.30
2022-12-28T14:49:49.218Z,75.35
2022-12-28T14:53:12.116Z,75.56
2022-12-28T14:56:26.244Z,76.29
2022-12-28T14:59:42.821Z,77.13
2022-12-28T15:02:55.984Z,77.07
2022-12-28T15:06:08.285Z,77.36
2022-12-28T15:09:20.342Z,77.64
2022-12-28T15:12:33.413Z,77.17
2022-12-28T15:15:46.022Z,78.13
2022-12-28T15:18:59.597Z,77.87
2022-12-28T15:22:13.256Z,78.33
2022-12-28T15:25:25.476Z,78.94
2022-12-28T15:28:37.776Z,79.11
2022-12-28T15:31:51.392Z,78.96
2022-12-28T15:35:03.659Z,78.94
2022-12-28T15:38:16.317Z,79.46
2022-12-28T15:41:39.625Z,79.62
2022-12-28T15:44:54.088Z,80.17
2022-12-28T15:48:06.572Z,80.43
2022-12-28T15:51:18.907Z,80.21
2022-12-28T15:54:31.293Z,79.71
2022-12-28T15:57:46.748Z,80.00
2022-12-28T16:00:59.768Z,79.54
2022-12-28T16:04:18.538Z,79.72
2022-12-28T16:07:31.553Z,79.77
2022-12-28T16:10:43.582Z,80.00
2022-12-28T16:14:02.110Z,80.00
2022-12-28T16:17:14.072Z,80.35
2022-12-28T16:20:26.485Z,79.98
2022-12-28T16:23:40.812Z,80.75
2022-12-28T16:26:53.178Z,81.66
2022-12-28T16:30:05.803Z,82.41
2022-12-28T16:33:20.872Z,84.36
2022-12-28T16:36:34.797Z,85.07
2022-12-28T16:39:47.171Z,85.61
2022-12-28T16:42:59.666Z,85.97
2022-12-28T16:46:15.377Z,85.12
2022-12-28T16:49:27.566Z,84.93
2022-12-28T16:52:39.724Z,84.72
2022-12-28T16:55:51.650Z,85.15
2022-12-28T16:59:07.496Z,85.68
2022-12-28T17:02:20.377Z,84.54
2022-12-28T17:05:34.754Z,84.20
2022-12-28T17:08:46.942Z,83.94
2022-12-28T17:11:59.037Z,84.19
2022-12-28T17:15:13.302Z,83.81
2022-12-28T17:18:25.527Z,84.35
2022-12-28T17:21:39.352Z,83.89
2022-12-28T17:24:52.687Z,83.71
2022-12-28T17:28:05.111Z,83.69
2022-12-28T17:31:22.310Z,83.09
2022-12-28T17:34:32.979Z,82.39
2022-12-28T17:40:52.046Z,81.87
2022-12-28T17:44:05.655Z,81.84
2022-12-28T17:50:23.810Z,81.96
2022-12-28T17:53:36.821Z,81.59
2022-12-28T17:56:49.692Z,81.75
2022-12-28T18:00:01.721Z,81.96
2022-12-28T18:06:19.601Z,82.09
2022-12-28T18:09:31.621Z,82.33
2022-12-28T18:16:25.700Z,82.24
2022-12-28T18:19:37.844Z,82.20
2022-12-28T18:22:49.755Z,82.28
2022-12-28T18:26:53.141Z,82.38
2022-12-28T18:30:05.153Z,82.15
2022-12-28T18:37:17.077Z,81.54
2022-12-28T18:44:44.260Z,81.78
2022-12-28T18:47:56.285Z,81.51
2022-12-28T18:51:21.265Z,81.90
2022-12-28T18:54:33.658Z,81.89
2022-12-28T18:57:45.922Z,81.59
2022-12-28T19:00:58.175Z,81.22
2022-12-28T19:04:12.247Z,81.11
2022-12-28T19:07:24.669Z,81.51
2022-12-28T19:10:36.655Z,81.48
2022-12-28T19:18:14.494Z,81.63
2022-12-28T19:22:13.842Z,81.51
2022-12-28T19:29:27.460Z,81.63
2022-12-28T19:32:40.033Z,81.49
2022-12-28T19:35:52.136Z,81.35
2022-12-28T19:39:04.975Z,81.22
2022-12-28T19:42:17.006Z,81.29
2022-12-28T19:45:32.268Z,81.28
2022-12-28T19:48:44.575Z,80.99
2022-12-28T19:51:57.715Z,81.33
2022-12-28T19:55:06.233Z,81.68
2022-12-28T19:58:20.684Z,82.07
2022-12-28T20:05:51.064Z,85.84
2022-12-28T20:09:06.545Z,85.50
2022-12-28T20:12:26.027Z,85.76
2022-12-28T20:15:38.113Z,85.39
2022-12-28T20:18:53.404Z,86.33
2022-12-28T20:22:05.441Z,88.28
2022-12-28T20:25:18.155Z,87.93
2022-12-28T22:47:20.532Z,84.54
2022-12-28T22:50:35.776Z,85.35
2022-12-28T22:53:50.081Z,87.26
2022-12-28T22:57:02.155Z,87.86
2022-12-28T23:00:19.856Z,86.72
2022-12-28T23:03:32.085Z,86.77
2022-12-28T23:06:44.679Z,86.50
2022-12-28T23:09:57.026Z,87.36
2022-12-28T23:13:09.508Z,87.27
2022-12-28T23:16:21.543Z,87.25
2022-12-28T23:19:49.405Z,88.19
2022-12-28T23:23:16.246Z,87.74
2022-12-28T23:26:43.295Z,87.48
2022-12-28T23:29:56.567Z,88.50
2022-12-28T23:33:08.720Z,87.59
2022-12-28T23:36:21.501Z,87.89
2022-12-28T23:39:33.581Z,87.35
2022-12-28T23:42:47.077Z,87.88
2022-12-28T23:45:59.502Z,88.73
2022-12-28T23:49:12.828Z,88.97
2022-12-28T23:52:26.163Z,89.46
